Wilson, KS (67490)

9:27 AM CDT on March 28, 2015 (GMT -0500)
Wilson | | Change Station
CLOSE
Current Station
Personal Weather Station
Location: Wilson, KS
Elevation: 1689 ft
Nearby Weather Stations

Elev 1689 ft 38.82 °N, 98.47 °W | Updated 23 seconds ago

Clear
Clear
43.6 °F
Feels Like 42 °F
N
3.1
Wind Variable Wind from NE
Gusts 4.3 mph

Today
High -- | Low -- °F
--% Chance of Precip.
Yesterday
High -- | Low -- °F
Precip. -- in
7:25 AM 7:53 PM
Waxing Gibbous, 62% visible
Pressure 30.04 in
Visibility 9.0 miles
Clouds Clear
Windchill 42 °F
Dew Point 20 °F
Humidity 39%
Rainfall 0.00 in
Snow Depth Not available.
UV 1 out of 12
Pollen 8.10 out of 12
Air Quality Not available.
Flu Activity Not available.
METAR KRSL 281353Z AUTO 05006KT 9SM CLR 04/01 A3001 RMK AO2 SLP170 T00390011

More Conditions Fewer Conditions

Pressure 30.04 in
Visibility 9.0 miles
Clouds Clear
Windchill 42 °F
Dew Point 20 °F
Humidity 39%
Rainfall 0.00 in
Snow Depth Not available.
UV 1 out of 12
Pollen 8.10 out of 12
Air Quality Not available.
Flu Activity Not available.
METAR KRSL 281353Z AUTO 05006KT 9SM CLR 04/01 A3001 RMK AO2 SLP170 T00390011

More Conditions Fewer Conditions

10-Day Weather Forecast

Almanac

Astronomy

Mar. 28, 2015 Rise Set
Actual Time
Civil Twilight
Nautical Twilight
Astronomical Twilight
Moon
Length of Visible Light
Length of Day
Tomorrow will be .
, % of the Moon is Illuminated

Today's Extremes

State Highs State Lows

Community

WunderPhotos

Upload Photos

1,808,984 photos uploaded!

WunderBlogs® & News

Nearby

Air Quality

  Air Quality AQ Index Pollutant
Not available.

Snow Depth

Station Depth Elevation

Earthquake Activity

City Distance Mag. Time & Date
Minimum magnitude displayed is 2.5.

Coastal Water Temperatures

Place Temperature

Stations

Nearby Weather Stations

Station Location Temp. Windchill Dew Point Humidity Wind Precip. Elev Updated Type